Seneca, SC (29672)

12:51 PM EST on February 19, 2017 (GMT -0500)
KS4YX - Sunset Shores | | Change Station

Elev 919 ft 34.74 °N, 82.96 °W | Updated 1 minute ago

Mostly Cloudy
Mostly Cloudy
68.1 °F
Feels Like 68.1 °F
N
3.0
Wind Variable Wind from North
Gusts 6.0 mph

Today
High -- | Low -- °F
--% Chance of Precip.
Yesterday
High -- | Low -- °F
Precip. -- in
Pressure 30.06 in
Visibility 10.0 miles
Clouds Mostly Cloudy 5000 ft
Dew Point 48 °F
Humidity 49%
Rainfall 0.00 in
Snow Depth Not available.
7:12 AM 6:18 PM
Last Quarter, 41% visible
METAR KCEU 191654Z AUTO 31009KT 10SM BKN050 20/07 A3007 RMK AO2 SLP177 T02000072
Pressure 30.06 in
Visibility 10.0 miles
Clouds Mostly Cloudy 5000 ft
Dew Point 48 °F
Humidity 49%
Rainfall 0.00 in
Snow Depth Not available.
7:12 AM 6:18 PM
Last Quarter, 41% visible
METAR KCEU 191654Z AUTO 31009KT 10SM BKN050 20/07 A3007 RMK AO2 SLP177 T02000072

Get Your Daily Forecast Email!

Thanks for signing up!

Be on the lookout for a verification email in your inbox.

You'll start receiving the daily forecast at 8 AM.

×

10-Day Weather Forecast

Almanac

Astronomy

Feb. 19, 2017 Rise Set
Actual Time
Civil Twilight
Nautical Twilight
Astronomical Twilight
Moon
Length of Visible Light
Length of Day
Tomorrow will be .
, % of the Moon is Illuminated

Today's Extremes

State Highs State Lows

Community

WunderPhotos

Upload Photos

1,962,540 photos uploaded!

WunderBlog® & News

Nearby

Air Quality

  Air Quality AQ Index Pollutant
Not available.

Snow Depth

Station Depth Elevation

Earthquake Activity

City Distance Mag. Time & Date
Minimum magnitude displayed is 2.5.

Coastal Water Temperatures

Place Temperature

Stations

Nearby Weather Stations

Station Location Temp. Windchill Dew Point Humidity Wind Precip. Elev Updated Type
                   

Watches & Warnings

There are currently no watches in effect.